Terminal Aerodrome Forecast
Issued by NWS Lake Charles, LA

Home | Current Version | Previous Version | Text Only | Print | Product List | Glossary On
Versions: 1 2 3 4 5 6 7 8 9 10 11 12 13 14 15 16 17 18 19 20 21 22 23
514
FTUS44 KLCH 281126
TAFLCH
TAF
KLCH 281126Z 2812/2912 17004KT P6SM BKN120 OVC250
     FM281500 21006KT P6SM VCTS SCT035CB BKN120 BKN250
     FM290000 19002KT P6SM SCT250=

USA.gov is the U.S. government's official web portal to all federal, state and local government web resources and services.